Alkor — DBND — position and weather

sailwx.info

Track history (hours):
 
Tides and Currents Weather Stations Pressure Air Temp Water Temp Dewpoint Dewpoint Depression Visibility Wind Speed Wind Dir Waves Ship Positions

Oceanographic research ship Alkor (Germany)

Ship's website: http://www.briese.de/

Detailed information on ship capabilities available from University of Delaware's Ocean Information Center.

Last reported at 2019-Feb-23 01:00 UTC. Time now 2019-Feb-23 01:39 UTC.
Position N 54°18' E 010°12'.

Length 55 m; draft 4.2 m.

Type: Ship. MMSI: 211216512.

Wind from 180 at 6 knots

Barometer 1043.2 mb
Air temperature 1.2 ° C
Water temperature 5.8 ° C

Date/timePositionNaut miles runAvg speedWind from/ knotsBaromVisibWave heightAir tempDewpointWater temp
2019-Feb-23 01:00N 54°18' E 010°12'0 0.0 180 / 61043.2 1.2 5.8
2019-Feb-23 00:00N 54°18' E 010°12'0 0.0 170 / 51043.2 1.4 5.9
2019-Feb-22 23:00N 54°18' E 010°12'0 0.0 140 / 51043.9 0.9 5.9
2019-Feb-22 22:00N 54°18' E 010°12'0 0.0 140 / 21044.2 1.4 6.1
2019-Feb-22 21:00N 54°18' E 010°12'0 0.0 110 / 41043.4 1.7 6.2
2019-Feb-22 20:00N 54°18' E 010°12'0 0.0 120 / 41043.0 2.2 6.1
2019-Feb-22 19:00N 54°18' E 010°12'0 0.0 110 / 61042.7 2.4 6.1
2019-Feb-22 18:00N 54°18' E 010°12'0 0.0 090 / 81043.0 3.0 6.0
2019-Feb-22 17:00N 54°18' E 010°12'0 0.0 110 / 61042.4 4.0 5.9
2019-Feb-22 16:00N 54°18' E 010°12'0 0.0 120 / 71041.9 4.9 5.7
2019-Feb-22 15:00N 54°18' E 010°12'0 0.0 120 / 71041.6 5.7 5.8
2019-Feb-22 14:00N 54°18' E 010°12'0 0.0 120 / 91041.3 4.9 6.0
2019-Feb-22 13:00N 54°18' E 010°12'0 0.0 090 / 91041.2 4.7 6.1
2019-Feb-22 12:00N 54°18' E 010°12'0 0.0 110 / 101040.6 4.2 6.1
2019-Feb-22 11:00N 54°18' E 010°12'0 0.0 100 / 111040.6 3.2 6.0
2019-Feb-22 10:00N 54°18' E 010°12'0 0.0 100 / 131039.7 2.9 5.9
2019-Feb-22 09:00N 54°18' E 010°12'0 0.0 110 / 151039.1 2.9 6.2
2019-Feb-22 08:00N 54°18' E 010°12'0 0.0 080 / 131038.2 3.2 6.4
2019-Feb-22 07:00N 54°18' E 010°12'0 0.0 080 / 141036.9 3.2 6.3
2019-Feb-22 06:00N 54°18' E 010°12'0 0.0 080 / 131035.3 3.4 6.1
2019-Feb-22 05:00N 54°18' E 010°12'0 0.0 090 / 131034.2 3.5 5.9
2019-Feb-22 04:00N 54°18' E 010°12'0 0.0 080 / 141033.0 3.7 5.8
2019-Feb-22 03:00N 54°18' E 010°12'0 0.0 030 / 101031.6 4.9 6.4
2019-Feb-22 02:00N 54°18' E 010°12'0 0.0 040 / 121030.8 5.2 6.1
2019-Feb-22 01:00N 54°18' E 010°12'0 0.0 320 / 51029.6 7.2 6.0
2019-Feb-22 00:00N 54°18' E 010°12'0 0.0 320 / 41028.3 7.2 6.1
2019-Feb-21 23:00N 54°18' E 010°12'0 0.0 310 / 41027.6 7.2 5.9
2019-Feb-21 22:00N 54°18' E 010°12'0 0.0 290 / 31026.7 7.4 5.7
2019-Feb-21 21:00N 54°18' E 010°12'0 0.0 300 / 31025.9 7.2 5.7
2019-Feb-21 20:00N 54°18' E 010°12'0 0.0 290 / 31025.1 7.2 5.5
2019-Feb-21 19:00N 54°18' E 010°12'0 0.0 270 / 41024.2 7.4 5.5
2019-Feb-21 18:00N 54°18' E 010°12'0 0.0 250 / 41023.3 7.7 5.4
2019-Feb-21 17:00N 54°18' E 010°12'0 0.0 260 / 41022.8 7.7 5.4
2019-Feb-21 16:00N 54°18' E 010°12'0 0.0 250 / 51022.2 7.9 5.5
2019-Feb-21 15:00N 54°18' E 010°12'0 0.0 250 / 41022.3 7.9 5.5
2019-Feb-21 14:00N 54°18' E 010°12'0 0.0 240 / 81021.6 8.2 5.5
2019-Feb-21 13:00N 54°18' E 010°12'0 0.0 250 / 61021.7 8.0 5.5
2019-Feb-21 12:00N 54°18' E 010°12'0 0.0 250 / 71021.5 8.4 5.5
2019-Feb-21 11:00N 54°18' E 010°12'0 0.0 240 / 81021.3 8.2 5.4
2019-Feb-21 10:00N 54°18' E 010°12'0 0.0 240 / 71020.8 8.2 5.3
2019-Feb-21 09:00N 54°18' E 010°12'0 0.0 230 / 81020.7 7.7 5.2
2019-Feb-21 08:00N 54°18' E 010°12'0 0.0 230 / 81021.1 7.7 5.4
2019-Feb-21 07:00N 54°18' E 010°12'0 0.0 230 / 81020.4 7.7 5.5
2019-Feb-21 06:00N 54°18' E 010°12'0 0.0 230 / 71020.1 7.4 5.4
2019-Feb-21 05:00N 54°18' E 010°12'0 0.0 230 / 61020.3 7.7 5.4
2019-Feb-21 03:00N 54°18' E 010°12'0 0.0 240 / 71020.4 8.0 5.2
2019-Feb-21 02:00N 54°18' E 010°12'0 0.0 240 / 61020.4 8.4 5.2
2019-Feb-21 01:00N 54°18' E 010°12'0 0.0 240 / 71020.5 8.4 5.2
2019-Feb-21 00:00N 54°18' E 010°12'0 0.0 240 / 71020.2 8.4 5.4
2019-Feb-20 23:00N 54°18' E 010°12'0 0.0 230 / 81020.2 8.4 5.5
2019-Feb-20 22:00N 54°18' E 010°12'0 0.0 230 / 71020.4 8.4 5.5
2019-Feb-20 21:00N 54°18' E 010°12'0 0.0 220 / 101020.4 8.4 5.5
2019-Feb-20 20:00N 54°18' E 010°12'0 0.0 220 / 91020.4 8.2 5.6
2019-Feb-20 19:00N 54°18' E 010°12'0 0.0 220 / 101020.5 7.9 5.5
2019-Feb-20 18:00N 54°18' E 010°12'0 0.0 220 / 71020.5 7.7 5.5
2019-Feb-20 17:00N 54°18' E 010°12'0 0.0 220 / 101020.2 7.9 5.6
2019-Feb-20 16:00N 54°18' E 010°12'0 0.0 230 / 81020.1 8.2 5.6
2019-Feb-20 15:00N 54°18' E 010°12'0 0.0 230 / 71020.0 8.2 5.7
2019-Feb-20 14:00N 54°18' E 010°12'0 0.0 230 / 81020.0 7.9 5.7
2019-Feb-20 13:00N 54°18' E 010°12'0 0.0 240 / 71020.1 7.7 5.7
2019-Feb-20 12:00N 54°18' E 010°12'323.1 230 / 71019.8 7.9 5.7
2019-Feb-20 11:53N 54°20' E 010°09'0 0.0
2019-Feb-20 11:23N 54°20' E 010°09'3 6.4
2019-Feb-20 11:00N 54°18' E 010°12'343.0 240 / 71019.6 7.7 5.4
2019-Feb-20 10:56N 54°20' E 010°09'0 0.0
2019-Feb-20 10:26N 54°20' E 010°09'3 5.7
2019-Feb-20 10:00N 54°18' E 010°12'343.2 230 / 71019.0 7.9 5.5
2019-Feb-20 09:56N 54°20' E 010°09'0 0.0
2019-Feb-20 09:26N 54°20' E 010°09'3 5.7
2019-Feb-20 09:00N 54°18' E 010°12'343.8 230 / 71018.5 7.2 5.7
2019-Feb-20 08:56N 54°20' E 010°09'0 0.0
2019-Feb-20 08:26N 54°20' E 010°09'3 5.7
2019-Feb-20 08:00N 54°18' E 010°12'3291.6 220 / 61017.9 6.2 5.6
2019-Feb-20 07:59N 54°20' E 010°09'0 0.0
2019-Feb-20 07:29N 54°20' E 010°09'3 5.1
2019-Feb-20 07:00N 54°18' E 010°12'343.6 230 / 51017.4 6.0 5.6
2019-Feb-20 06:56N 54°20' E 010°09'0 0.0
2019-Feb-20 06:29N 54°20' E 010°09'3 5.1
2019-Feb-20 06:00N 54°18' E 010°12'3301.3 230 / 61016.7 6.2 5.6
2019-Feb-20 05:59N 54°20' E 010°09'0 0.0
2019-Feb-20 05:29N 54°20' E 010°09'3 5.1
2019-Feb-20 05:00N 54°18' E 010°12'3300.8 230 / 51016.6 6.4 5.6
2019-Feb-20 04:59N 54°20' E 010°09'0 0.0
2019-Feb-20 04:29N 54°20' E 010°09'3 5.1
2019-Feb-20 04:00N 54°18' E 010°12'3322.9 230 / 61016.2 6.2 5.5
2019-Feb-20 03:59N 54°20' E 010°09'3 2.5
2019-Feb-20 03:00N 54°18' E 010°12'3282.0 230 / 71015.9 6.5 5.4
2019-Feb-20 02:59N 54°20' E 010°09'0 0.0
2019-Feb-20 02:29N 54°20' E 010°09'3 5.1
2019-Feb-20 02:00N 54°18' E 010°12'3273.5 240 / 61015.9 6.5 5.4
2019-Feb-20 01:59N 54°20' E 010°09'0 0.0
2019-Feb-20 01:29N 54°20' E 010°09'3 5.1
2019-Feb-20 01:00N 54°18' E 010°12'315.8 240 / 51015.9 6.5 5.6
2019-Feb-20 00:50N 54°20' E 010°09'0 0.0
2019-Feb-20 00:20N 54°20' E 010°09'3 7.4
2019-Feb-20 00:00N 54°18' E 010°12'315.7 250 / 51015.3 6.7 5.7
2019-Feb-19 23:50N 54°20' E 010°09'0 0.0
2019-Feb-19 23:20N 54°20' E 010°09'3 7.4
2019-Feb-19 23:00N 54°18' E 010°12'323.0 260 / 61015.1 6.7 5.6
2019-Feb-19 22:53N 54°20' E 010°09'0 0.0
2019-Feb-19 22:23N 54°20' E 010°09'3 6.4
2019-Feb-19 22:00N 54°18' E 010°12'323.0 250 / 51014.9 6.7 5.6
2019-Feb-19 21:53N 54°20' E 010°09'0 0.0
2019-Feb-19 21:23N 54°20' E 010°09'3 6.4
2019-Feb-19 21:00N 54°18' E 010°12'322.8 240 / 61014.7 6.7 5.6
2019-Feb-19 20:53N 54°20' E 010°09'0 0.0
2019-Feb-19 20:23N 54°20' E 010°09'3 6.4
2019-Feb-19 20:00N 54°18' E 010°12'342.4 250 / 51014.5 6.5 5.6
2019-Feb-19 19:56N 54°20' E 010°09'0 0.0
2019-Feb-19 19:26N 54°20' E 010°09'3 5.7
2019-Feb-19 19:00N 54°18' E 010°12'322.7 250 / 41014.0 6.5 5.5
2019-Feb-19 18:53N 54°20' E 010°09'0 0.0
2019-Feb-19 18:23N 54°20' E 010°09'3 6.4
2019-Feb-19 18:00N 54°18' E 010°12'341.9 240 / 61013.6 6.4 5.6
2019-Feb-19 17:56N 54°20' E 010°09'0 0.0
2019-Feb-19 17:26N 54°20' E 010°09'3 5.7
2019-Feb-19 17:00N 54°18' E 010°12'342.0 240 / 71012.9 7.2 5.6
2019-Feb-19 16:56N 54°20' E 010°09'0 0.0
2019-Feb-19 16:29N 54°20' E 010°09'3 5.1
2019-Feb-19 16:00N 54°18' E 010°12'3300.8 250 / 81012.4 7.4 5.5
2019-Feb-19 15:59N 54°20' E 010°09'0 0.0
2019-Feb-19 15:29N 54°20' E 010°09'3 5.1
2019-Feb-19 15:00N 54°18' E 010°12'3258.3 240 / 91011.9 7.9 5.4
2019-Feb-19 14:59N 54°20' E 010°09'0 0.0
2019-Feb-19 14:29N 54°20' E 010°09'3 5.1
2019-Feb-19 14:00N 54°18' E 010°12'3257.8 240 / 101011.5 7.7 5.3
2019-Feb-19 13:59N 54°20' E 010°09'0 0.0
2019-Feb-19 13:29N 54°20' E 010°09'3 5.1
2019-Feb-19 13:00N 54°18' E 010°12'3243.9 230 / 91011.4 7.2 5.3
2019-Feb-19 12:59N 54°20' E 010°09'0 0.0
2019-Feb-19 12:29N 54°20' E 010°09'3 5.1
2019-Feb-19 12:00N 54°18' E 010°12'3237.5 230 / 101011.6 6.5 5.2
2019-Feb-19 11:59N 54°20' E 010°09'0 0.0
2019-Feb-19 11:29N 54°20' E 010°09'3 5.1
2019-Feb-19 11:00N 54°18' E 010°12'3257.8 240 / 91011.6 6.9 5.0
2019-Feb-19 10:59N 54°20' E 010°09'0 0.0
2019-Feb-19 10:29N 54°20' E 010°09'3 5.1
2019-Feb-19 10:00N 54°18' E 010°12'3244.1 230 / 91011.4 7.4 4.6
2019-Feb-19 09:59N 54°20' E 010°09'1 0.9
2019-Feb-19 09:23N 54°19' E 010°09'2 5.1
2019-Feb-19 09:00N 54°18' E 010°06'218.5 240 / 131011.4 7.0 5.9
2019-Feb-19 08:53N 54°19' E 010°09'0 0.0
2019-Feb-19 08:23N 54°19' E 010°09'2 5.1
2019-Feb-19 08:00N 54°18' E 010°06'218.3 240 / 141011.4 6.9 6.0
2019-Feb-19 07:53N 54°19' E 010°09'0 0.0
2019-Feb-19 07:23N 54°19' E 010°09'2 5.1
2019-Feb-19 07:00N 54°18' E 010°06'234.4 240 / 91011.1 6.9 6.2
2019-Feb-19 06:56N 54°19' E 010°09'0 0.0
2019-Feb-19 06:26N 54°19' E 010°09'2 4.5
2019-Feb-19 06:00N 54°18' E 010°06'234.4 240 / 101010.8 6.5 6.1
2019-Feb-19 05:56N 54°19' E 010°09'0 0.0
2019-Feb-19 05:26N 54°19' E 010°09'2 4.5
2019-Feb-19 05:00N 54°18' E 010°06'234.1 230 / 81010.9 6.5 6.1
2019-Feb-19 04:56N 54°19' E 010°09'0 0.0
2019-Feb-19 04:29N 54°19' E 010°09'2 4.1
2019-Feb-19 04:00N 54°18' E 010°06'2239.6 250 / 91010.8 7.2 6.0
2019-Feb-19 03:59N 54°19' E 010°09'0 0.0
2019-Feb-19 03:29N 54°19' E 010°09'2 4.1
2019-Feb-19 03:00N 54°18' E 010°06'2239.6 220 / 71010.5 6.9 6.2
2019-Feb-19 02:59N 54°19' E 010°09'0 0.0
2019-Feb-19 02:29N 54°19' E 010°09'2 4.1
2019-Feb-19 02:00N 54°18' E 010°06'2231.9 210 / 61010.8 6.4 6.1
2019-Feb-19 01:59N 54°19' E 010°09'0 0.0
2019-Feb-19 01:29N 54°19' E 010°09'2 4.1
2019-Feb-19 01:00N 54°18' E 010°06'2231.9 210 / 61011.6 6.7 6.0
2019-Feb-19 00:59N 54°19' E 010°09'0 0.0
2019-Feb-19 00:29N 54°19' E 010°09'2 4.1
2019-Feb-19 00:00N 54°18' E 010°06'2239.6 220 / 31012.0 6.9 6.1
2019-Feb-18 23:59N 54°19' E 010°09'0 0.0
2019-Feb-18 23:29N 54°19' E 010°09'2 4.1
2019-Feb-18 23:00N 54°18' E 010°06'2239.6 190 / 41012.3 7.0 6.0
2019-Feb-18 22:59N 54°19' E 010°09'0 0.0
2019-Feb-18 22:29N 54°19' E 010°09'2 4.1
2019-Feb-18 22:00N 54°18' E 010°06'2248.2 220 / 21012.8 7.5 6.0
2019-Feb-18 21:59N 54°19' E 010°09'0 0.0
2019-Feb-18 21:29N 54°19' E 010°09'2 4.1
2019-Feb-18 21:00N 54°18' E 010°06'2211.4 190 / 21013.2 8.2 5.9
2019-Feb-18 20:59N 54°19' E 010°09'0 0.0
2019-Feb-18 20:29N 54°19' E 010°09'2 4.1
2019-Feb-18 20:00N 54°18' E 010°06'212.6 210 / 31013.5 8.9 5.9
2019-Feb-18 19:50N 54°19' E 010°09'0 0.0
2019-Feb-18 19:20N 54°19' E 010°09'2 5.9
2019-Feb-18 19:00N 54°18' E 010°06'212.5 200 / 41013.7 9.7 5.9
2019-Feb-18 18:50N 54°19' E 010°09'0 0.0
2019-Feb-18 18:23N 54°19' E 010°09'2 5.1
2019-Feb-18 18:00N 54°18' E 010°06'218.2 200 / 41014.2 10.7 5.7
2019-Feb-18 17:53N 54°19' E 010°09'0 0.0
2019-Feb-18 17:23N 54°19' E 010°09'2 5.1
2019-Feb-18 17:00N 54°18' E 010°06'218.2 210 / 51014.6 12.2 5.7
2019-Feb-18 16:53N 54°19' E 010°09'0 0.0
2019-Feb-18 16:23N 54°19' E 010°09'2 5.1
2019-Feb-18 16:00N 54°18' E 010°06'233.5 210 / 71014.7 13.4 5.1
2019-Feb-18 15:56N 54°19' E 010°09'0 0.0
2019-Feb-18 15:27N 54°19' E 010°09'1 1.2
2019-Feb-18 15:00N 54°20' E 010°09'3220.1
2019-Feb-18 15:00N 54°18' E 010°12'2 5.1 200 / 91015.3 13.9 5.0
2019-Feb-18 14:30N 54°20' E 010°09'2 4.2
2019-Feb-18 14:00N 54°22' E 010°08'3174.8
2019-Feb-18 14:00N 54°24' E 010°06'2 3.9 220 / 81015.7 14.0 4.6
2019-Feb-18 13:30N 54°22' E 010°05'4 8.0
2019-Feb-18 13:00N 54°21' E 009°59'3448.3
2019-Feb-18 13:00N 54°18' E 010°00'612.1 210 / 61016.3 12.9 4.5
2019-Feb-18 12:30N 54°22' E 009°52'4 8.2
2019-Feb-18 12:00N 54°21' E 009°45'3269.6
2019-Feb-18 12:00N 54°18' E 009°48'4 8.8 220 / 81016.9 12.0 4.3
2019-Feb-18 11:31N 54°18' E 009°41'2 4.7
2019-Feb-18 11:01N 54°16' E 009°38'2129.8
2019-Feb-18 11:00N 54°18' E 009°36'2 4.6 200 / 91017.5 10.2 4.7
2019-Feb-18 10:31N 54°16' E 009°38'2 4.4
2019-Feb-18 10:01N 54°14' E 009°36'2114.0
2019-Feb-18 10:00N 54°12' E 009°36'3 6.6 220 / 51018.3 8.9 4.5
2019-Feb-18 09:31N 54°11' E 009°31'5 9.0
2019-Feb-18 09:01N 54°10' E 009°24'2146.6
2019-Feb-18 09:00N 54°12' E 009°24'712.6 220 / 41018.3 7.0 4.1
2019-Feb-18 08:25N 54°05' E 009°19'3 7.4
2019-Feb-18 08:01N 54°02' E 009°18'2137.2
2019-Feb-18 08:00N 54°00' E 009°18'1 1.8 170 / 31018.9 3.4 4.1
2019-Feb-18 07:30N 53°59' E 009°17'611.9
2019-Feb-18 07:00N 53°54' E 009°12'210.0 210 / 51018.7 4.4 4.0
2019-Feb-18 06:49N 53°56' E 009°12'3 5.3
2019-Feb-18 06:16N 53°54' E 009°09'2 6.4
2019-Feb-18 06:00N 53°54' E 009°12'248.5 180 / 61018.3 4.2 4.5
2019-Feb-18 05:57N 53°54' E 009°09'0 0.0
2019-Feb-18 05:30N 53°54' E 009°09'2 3.4
2019-Feb-18 05:00N 53°54' E 009°12'258.0 190 / 41018.4 5.0 4.5
2019-Feb-18 04:58N 53°54' E 009°09'0 0.0
2019-Feb-18 04:29N 53°54' E 009°09'2 3.5
2019-Feb-18 04:00N 53°54' E 009°12'2781.6 210 / 101018.4 6.2 4.3
2019-Feb-18 03:59N 53°54' E 009°09'0 0.0
2019-Feb-18 03:27N 53°54' E 009°09'0 0.0
2019-Feb-18 03:00N 53°54' E 009°09'2208.9
2019-Feb-18 03:00N 53°54' E 009°12'2 3.5 210 / 71018.6 5.4 4.6
2019-Feb-18 02:30N 53°54' E 009°09'0 0.0
2019-Feb-18 02:00N 53°54' E 009°09'2195.4
2019-Feb-18 02:00N 53°54' E 009°12'2 3.6 180 / 51018.8 5.2 4.4
2019-Feb-18 01:31N 53°54' E 009°09'2 3.4
2019-Feb-18 01:00N 53°54' E 009°12'2127.8 170 / 61018.9 5.2 4.8
2019-Feb-18 00:59N 53°54' E 009°09'0 0.0
2019-Feb-18 00:11N 53°54' E 009°09'2 9.3
2019-Feb-18 00:00N 53°54' E 009°12'2209.0 150 / 71018.9 5.7 4.6
2019-Feb-17 23:59N 53°54' E 009°09'2 1.8
2019-Feb-17 23:00N 53°54' E 009°12'2 6.6 140 / 71019.0 5.7 4.8
2019-Feb-17 22:44N 53°54' E 009°09'0 0.0
2019-Feb-17 22:21N 53°54' E 009°09'2 4.8
2019-Feb-17 22:00N 53°54' E 009°12'237.2 150 / 61019.2 6.4 4.8
2019-Feb-17 21:57N 53°54' E 009°09'0 0.0
2019-Feb-17 21:30N 53°54' E 009°09'2 3.4
2019-Feb-17 21:00N 53°54' E 009°12'2 5.4 140 / 51019.6 6.9 4.9
2019-Feb-17 20:40N 53°54' E 009°09'0 0.0
2019-Feb-17 20:30N 53°54' E 009°09'2 3.4
2019-Feb-17 20:00N 53°54' E 009°12'0 0.0 140 / 81019.2 8.0 5.0
2019-Feb-17 19:00N 53°54' E 009°12'0 0.0 140 / 61019.6 7.9 4.9
2019-Feb-17 18:00N 53°54' E 009°12'258.0 150 / 51019.7 8.4 5.0
2019-Feb-17 17:58N 53°54' E 009°09'0 0.0
2019-Feb-17 17:13N 53°54' E 009°09'2 7.5
2019-Feb-17 17:00N 53°54' E 009°12'212.3 140 / 81019.7 10.5 4.7
2019-Feb-17 16:51N 53°54' E 009°09'0 0.0
2019-Feb-17 16:30N 53°54' E 009°09'0 0.0
2019-Feb-17 16:00N 53°54' E 009°09'2149.2
2019-Feb-17 16:00N 53°54' E 009°12'2 2.5 120 / 51019.7 11.7 4.2
2019-Feb-17 15:18N 53°54' E 009°09'2 5.7
2019-Feb-17 15:00N 53°54' E 009°12'217.9 120 / 51020.2 13.7 4.2
2019-Feb-17 14:54N 53°54' E 009°09'0 0.6
2019-Feb-17 14:12N 53°53' E 009°09'2 8.3
2019-Feb-17 14:00N 53°54' E 009°06'1435.6 130 / 91020.5 12.2 3.9
2019-Feb-17 13:59N 53°53' E 009°06'5 9.2
2019-Feb-17 13:27N 53°51' E 008°59'4 8.9
2019-Feb-17 13:00N 53°48' E 008°54'3185.1 150 / 101020.9 12.7 4.3
2019-Feb-17 12:59N 53°50' E 008°51'5 9.8
2019-Feb-17 12:30N 53°52' E 008°43'510.3
2019-Feb-17 12:00N 53°56' E 008°38'3221.5
2019-Feb-17 12:00N 53°54' E 008°36'9 9.3 130 / 101021.4 9.4 4.5
2019-Feb-17 11:00N 54°00' E 008°24'249.9 160 / 151021.8 7.7 4.6
2019-Feb-17 10:57N 53°59' E 008°20'611.5
2019-Feb-17 10:26N 53°58' E 008°10'511.1
2019-Feb-17 10:01N 53°55' E 008°04'2116.5
2019-Feb-17 10:00N 53°54' E 008°06'5 9.5 160 / 131022.2 7.2 4.5
2019-Feb-17 09:30N 53°49' E 008°07'612.3
2019-Feb-17 09:00N 53°45' E 008°14'3190.8
2019-Feb-17 09:00N 53°42' E 008°12'611.7 160 / 131022.5 5.4 4.3
2019-Feb-17 08:30N 53°41' E 008°21'510.7
2019-Feb-17 08:00N 53°37' E 008°28'2294.8
2019-Feb-17 08:00N 53°36' E 008°30'3 6.8 160 / 101022.9 6.4 4.4
2019-Feb-17 07:30N 53°33' E 008°33'2 3.3
2019-Feb-17 07:00N 53°32' E 008°35'2151.3
2019-Feb-17 07:00N 53°30' E 008°36'2 4.4 170 / 51022.8 5.5 5.3
2019-Feb-17 06:30N 53°32' E 008°35'0 0.0
2019-Feb-17 06:00N 53°32' E 008°35'2159.2
2019-Feb-17 06:00N 53°30' E 008°36'2 4.0 160 / 41022.8 6.0 6.4
2019-Feb-17 05:27N 53°32' E 008°35'0 0.0
2019-Feb-17 05:00N 53°32' E 008°35'2169.9
2019-Feb-17 05:00N 53°30' E 008°36'2 4.4 180 / 61023.0 6.5 6.4
2019-Feb-17 04:30N 53°32' E 008°35'0 0.0
2019-Feb-17 04:00N 53°32' E 008°35'2156.0
2019-Feb-17 04:00N 53°30' E 008°36'2 4.4 170 / 41023.5 6.9 6.5
2019-Feb-17 03:30N 53°32' E 008°35'0 0.0
2019-Feb-17 03:00N 53°32' E 008°35'2156.0
2019-Feb-17 03:00N 53°30' E 008°36'2 4.4 190 / 71023.7 7.0 6.5
2019-Feb-17 02:30N 53°32' E 008°35'0 0.0
2019-Feb-17 02:00N 53°32' E 008°35'2159.2
2019-Feb-17 02:00N 53°30' E 008°36'2 4.4 180 / 61023.8 7.7 6.5
2019-Feb-17 01:30N 53°32' E 008°35'0 0.0
2019-Feb-17 01:00N 53°32' E 008°35'2156.0
2019-Feb-17 01:00N 53°30' E 008°36'2 4.4 190 / 61024.0 8.4 6.1
2019-Feb-17 00:30N 53°32' E 008°35'0 0.0
2019-Feb-17 00:00N 53°32' E 008°35'2159.3
2019-Feb-17 00:00N 53°30' E 008°36'2 4.4 210 / 51024.0 9.2 5.9
2019-Feb-16 23:30N 53°32' E 008°35'0 0.0
2019-Feb-16 23:00N 53°32' E 008°35'2159.3
2019-Feb-16 23:00N 53°30' E 008°36'2 4.4 1024.1 8.7 5.9
2019-Feb-16 22:30N 53°32' E 008°35'0 0.0
2019-Feb-16 22:00N 53°32' E 008°35'2146.9
2019-Feb-16 22:00N 53°30' E 008°36'2 4.4 210 / 51024.0 8.9 5.9
2019-Feb-16 21:30N 53°32' E 008°35'0 0.0
2019-Feb-16 21:00N 53°32' E 008°35'2150.0
2019-Feb-16 21:00N 53°30' E 008°36'2 4.4 210 / 31024.2 9.2 6.0
2019-Feb-16 20:30N 53°32' E 008°35'0 0.0
2019-Feb-16 20:00N 53°32' E 008°35'2152.9
2019-Feb-16 20:00N 53°30' E 008°36'2 4.4 210 / 71023.7 9.2 5.8
2019-Feb-16 19:30N 53°32' E 008°35'0 0.0
2019-Feb-16 19:00N 53°32' E 008°35'2169.9
2019-Feb-16 19:00N 53°30' E 008°36'2 4.4 210 / 61023.8 9.7 5.6
2019-Feb-16 18:30N 53°32' E 008°35'0 0.0
2019-Feb-16 18:00N 53°32' E 008°35'2169.9
2019-Feb-16 18:00N 53°30' E 008°36'2 4.3 240 / 21023.9 9.7 5.4
2019-Feb-16 17:30N 53°32' E 008°35'0 0.0
2019-Feb-16 17:00N 53°32' E 008°35'2162.6
2019-Feb-16 17:00N 53°30' E 008°36'2 4.4 260 / 21023.6 10.5 4.9
2019-Feb-16 16:30N 53°32' E 008°35'0 0.0
2019-Feb-16 16:00N 53°32' E 008°35'2165.7
2019-Feb-16 16:00N 53°30' E 008°36'2 4.4 260 / 21023.3 11.9 4.6
2019-Feb-16 15:30N 53°32' E 008°35'0 0.0
2019-Feb-16 15:00N 53°32' E 008°35'2159.3
2019-Feb-16 15:00N 53°30' E 008°36'2 4.3 210 / 51023.0 12.9 4.8
2019-Feb-16 14:30N 53°32' E 008°35'0 0.3
2019-Feb-16 14:00N 53°32' E 008°35'2144.9
2019-Feb-16 14:00N 53°30' E 008°36'611.7 210 / 121023.5 12.2 5.0
2019-Feb-16 13:30N 53°35' E 008°31'5 9.9
2019-Feb-16 13:00N 53°38' E 008°25'3211.2
2019-Feb-16 13:00N 53°36' E 008°24'612.4 210 / 171023.5 11.0 4.3
2019-Feb-16 12:30N 53°42' E 008°20'2 4.0
2019-Feb-16 12:00N 53°43' E 008°17'159.5
2019-Feb-16 12:00N 53°42' E 008°18'511.1 200 / 161023.3 7.7 4.1
2019-Feb-16 11:30N 53°45' E 008°11'2 4.1
2019-Feb-16 11:00N 53°47' E 008°08'2195.8
2019-Feb-16 11:00N 53°48' E 008°06'3 6.2 210 / 141023.5 7.4 4.2
2019-Feb-16 10:30N 53°51' E 008°07'2 4.9
2019-Feb-16 10:00N 53°53' E 008°06'152.9
2019-Feb-16 10:00N 53°54' E 008°06'3 6.2 220 / 141023.2 5.9 4.3
2019-Feb-16 09:30N 53°56' E 008°02'5 9.0
2019-Feb-16 09:00N 53°60' E 007°59'049.9
2019-Feb-16 09:00N 54°00' E 008°00'3 4.4 220 / 171022.9 5.9 4.9
2019-Feb-16 08:19N 54°03' E 007°60'0 0.6
2019-Feb-16 08:00N 54°03' E 007°60'32069.6
2019-Feb-16 08:00N 54°06' E 008°00'2 2.5 200 / 211022.3 5.7 4.8
2019-Feb-16 07:03N 54°06' E 007°56'123.6
2019-Feb-16 07:00N 54°06' E 007°54'5 9.2 210 / 181022.2 5.5 4.7
2019-Feb-16 06:30N 54°11' E 007°54'1 2.9
2019-Feb-16 06:00N 54°12' E 007°54'0 0.0 220 / 151022.1 5.5 6.2
2019-Feb-16 05:00N 54°12' E 007°54'0 0.0 220 / 151022.3 6.0 6.2
2019-Feb-16 04:00N 54°12' E 007°54'0 0.0 210 / 121022.6 5.9 6.3
2019-Feb-16 03:00N 54°12' E 007°54'0 0.0 200 / 131023.1 6.2 6.3
2019-Feb-16 02:00N 54°12' E 007°54'0 0.0 190 / 131024.0 6.2 6.3
2019-Feb-16 01:00N 54°12' E 007°54'0 0.0 190 / 151024.4 6.9 6.3
2019-Feb-16 00:00N 54°12' E 007°54'0 0.0 190 / 131025.0 7.2 6.3
2019-Feb-15 23:00N 54°12' E 007°54'0 0.0 190 / 131025.3 7.2 6.3
2019-Feb-15 22:00N 54°12' E 007°54'0 0.0 180 / 131025.6 7.0 6.3
2019-Feb-15 21:00N 54°12' E 007°54'0 0.0 190 / 121026.3 7.2 6.3
2019-Feb-15 20:00N 54°12' E 007°54'0 0.0 190 / 111026.8 7.5 6.3
2019-Feb-15 19:00N 54°12' E 007°54'0 0.0 190 / 101027.4 8.0 6.3
2019-Feb-15 18:00N 54°12' E 007°54'0 0.0 180 / 131027.8 8.4 6.4
2019-Feb-15 17:00N 54°12' E 007°54'0 0.0 170 / 111028.1 7.9 6.3
2019-Feb-15 16:00N 54°12' E 007°54'0 0.0 170 / 101028.3 7.5 6.2
2019-Feb-15 15:00N 54°12' E 007°54'0 0.0 180 / 101029.3 7.5 6.2
2019-Feb-15 14:00N 54°12' E 007°54'115.8 170 / 71030.0 6.7 6.1
2019-Feb-15 13:54N 54°11' E 007°54'0 0.0
2019-Feb-15 13:00N 54°11' E 007°54'1153.9
2019-Feb-15 13:00N 54°12' E 007°54'1 2.9 180 / 81030.7 6.7 5.9
2019-Feb-15 12:30N 54°11' E 007°54'1 2.8
2019-Feb-15 12:00N 54°12' E 007°54'1 7.6 180 / 101031.4 6.4 5.7
2019-Feb-15 11:48N 54°11' E 007°54'0 0.0
2019-Feb-15 11:09N 54°11' E 007°54'1 9.2
2019-Feb-15 11:00N 54°12' E 007°54'115.8 190 / 121031.8 6.0 5.1
2019-Feb-15 10:54N 54°11' E 007°54'2 5.7
2019-Feb-15 10:29N 54°08' E 007°54'2 4.4
2019-Feb-15 10:00N 54°06' E 007°54'315.0 180 / 151032.0 5.7 4.9
2019-Feb-15 09:49N 54°08' E 007°52'0 0.2
2019-Feb-15 09:28N 54°08' E 007°52'3 5.5
2019-Feb-15 09:00N 54°06' E 007°54'214.0 180 / 131032.2 5.4 4.8
2019-Feb-15 08:50N 54°08' E 007°52'1 1.6
2019-Feb-15 08:22N 54°08' E 007°54'1 2.3
2019-Feb-15 08:00N 54°08' E 007°52'2515.2
2019-Feb-15 08:00N 54°06' E 007°54'3 6.0 180 / 131032.2 5.4 4.8
2019-Feb-15 07:26N 54°09' E 007°51'2 5.5
2019-Feb-15 07:00N 54°10' E 007°54'2759.1
2019-Feb-15 07:00N 54°12' E 007°54'0 0.0 180 / 91032.1 5.2 5.1
2019-Feb-15 06:00N 54°12' E 007°54'1 1.5 190 / 81032.0 4.9 6.4
2019-Feb-15 05:01N 54°11' E 007°54'164.3
2019-Feb-15 05:00N 54°12' E 007°54'1 1.5 210 / 41032.2 4.7 6.3
2019-Feb-15 04:01N 54°11' E 007°54'167.7
2019-Feb-15 04:00N 54°12' E 007°54'118.1 200 / 81032.5 5.0 6.3
2019-Feb-15 03:55N 54°11' E 007°54'1 1.6
2019-Feb-15 03:00N 54°12' E 007°54'111.1 220 / 51032.9 4.9 6.3
2019-Feb-15 02:52N 54°11' E 007°54'0 0.0
2019-Feb-15 02:13N 54°11' E 007°54'1 6.6
2019-Feb-15 02:00N 54°12' E 007°54'1 4.4 200 / 81033.4 5.2 6.3
2019-Feb-15 01:40N 54°11' E 007°54'1 2.2
2019-Feb-15 01:00N 54°12' E 007°54'1 2.7 230 / 71033.6 5.5 6.3
2019-Feb-15 00:28N 54°11' E 007°54'1 3.1
2019-Feb-15 00:00N 54°12' E 007°54'118.2 230 / 91033.6 5.7 6.2
2019-Feb-14 23:55N 54°11' E 007°54'0 0.0
2019-Feb-14 23:19N 54°11' E 007°54'1 4.5
2019-Feb-14 23:00N 54°12' E 007°54'1 8.1 220 / 101033.6 5.7 6.2
2019-Feb-14 22:49N 54°11' E 007°54'0 0.0
2019-Feb-14 22:25N 54°11' E 007°54'1 3.4
2019-Feb-14 22:00N 54°12' E 007°54'118.2 220 / 71033.7 5.2 6.2
2019-Feb-14 21:55N 54°11' E 007°54'1 1.6
2019-Feb-14 21:00N 54°12' E 007°54'0 0.0 230 / 81033.6 5.5 6.1
2019-Feb-14 20:00N 54°12' E 007°54'0 0.0 220 / 81033.7 5.4 6.1
2019-Feb-14 19:00N 54°12' E 007°54'0 0.0 230 / 91033.7 5.7 6.1
2019-Feb-14 18:00N 54°12' E 007°54'0 0.0 240 / 101033.6 5.7 6.1
2019-Feb-14 17:00N 54°12' E 007°54'0 0.0 240 / 121033.3 5.7 6.0
2019-Feb-14 16:00N 54°12' E 007°54'0 0.0 240 / 151033.0 5.9 5.9
2019-Feb-14 15:00N 54°12' E 007°54'0 0.0 240 / 121033.6 5.9 5.8
2019-Feb-14 14:00N 54°12' E 007°54'0 0.0 240 / 131033.8 5.9 5.6
2019-Feb-14 13:00N 54°12' E 007°54'237.9 240 / 161034.0 5.7 5.0
2019-Feb-14 12:56N 54°10' E 007°54'1 3.2
2019-Feb-14 12:30N 54°09' E 007°55'4 8.0
2019-Feb-14 12:00N 54°06' E 008°00'3285.1 220 / 181034.3 5.5 4.8
2019-Feb-14 11:59N 54°08' E 007°58'4 7.0
2019-Feb-14 11:22N 54°08' E 008°05'2 5.2
2019-Feb-14 11:00N 54°06' E 008°06'4 9.8 220 / 191034.2 4.9 4.4
2019-Feb-14 10:34N 54°04' E 008°12'0 0.1
2019-Feb-14 10:25N 54°04' E 008°12'4 9.6
2019-Feb-14 10:00N 54°00' E 008°12'416.9 220 / 181034.3 4.4 4.4
2019-Feb-14 09:46N 54°01' E 008°18'411.8
2019-Feb-14 09:24N 53°60' E 008°26'1 2.5
2019-Feb-14 09:00N 54°00' E 008°24'815.7 210 / 201034.1 4.4 4.2
2019-Feb-14 08:30N 53°58' E 008°37'5 9.7
2019-Feb-14 08:00N 53°54' E 008°42'1 3.0 220 / 121034.4 4.2 3.8
2019-Feb-14 07:32N 53°53' E 008°43'1 2.6
2019-Feb-14 07:00N 53°54' E 008°42'365.7 220 / 71034.1 3.7 5.3
2019-Feb-14 06:57N 53°51' E 008°43'3 2.8
2019-Feb-14 06:00N 53°54' E 008°42'0 0.0 220 / 91033.8 3.9 5.8
2019-Feb-14 05:00N 53°54' E 008°42'0 0.0 220 / 91033.5 4.4 6.2
2019-Feb-14 04:00N 53°54' E 008°42'0 0.0 210 / 61033.7 5.0 6.0
2019-Feb-14 03:00N 53°54' E 008°42'0 0.0 220 / 81033.5 5.2 6.1
2019-Feb-14 02:00N 53°54' E 008°42'0 0.0 220 / 101033.4 5.5 6.0
2019-Feb-14 01:00N 53°54' E 008°42'0 0.0 230 / 101033.5 5.5 6.0
2019-Feb-14 00:00N 53°54' E 008°42'0 0.0 230 / 91033.8 5.9 5.8
2019-Feb-13 23:00N 53°54' E 008°42'0 0.0 230 / 121033.2 6.4 5.8
2019-Feb-13 22:00N 53°54' E 008°42'0 0.0 240 / 131033.1 6.9 5.7
2019-Feb-13 21:00N 53°54' E 008°42'0 0.0 230 / 131032.8 7.0 5.6
2019-Feb-13 20:00N 53°54' E 008°42'0 0.0 230 / 141033.0 7.2 5.6
2019-Feb-13 19:00N 53°54' E 008°42'0 0.0 240 / 141032.9 7.5 5.5
2019-Feb-13 18:00N 53°54' E 008°42'0 0.0 240 / 131032.7 7.5 5.3
2019-Feb-13 17:00N 53°54' E 008°42'0 0.0 240 / 131032.2 7.2 5.1
2019-Feb-13 16:00N 53°54' E 008°42'3 3.6 240 / 111032.0 7.7 4.7
2019-Feb-13 15:13N 53°51' E 008°43'311.8
2019-Feb-13 15:00N 53°54' E 008°42'238.3 240 / 121032.0 7.7 3.7
2019-Feb-13 14:56N 53°52' E 008°43'1 2.3
2019-Feb-13 14:29N 53°52' E 008°44'3 6.0
2019-Feb-13 14:00N 53°50' E 008°48'2169.9
2019-Feb-13 14:00N 53°48' E 008°48'4 8.7 250 / 161032.0 7.4 3.4
2019-Feb-13 13:29N 53°52' E 008°44'3 5.2
2019-Feb-13 13:00N 53°54' E 008°42'111.9 240 / 151032.0 7.2 3.5
2019-Feb-13 12:55N 53°53' E 008°42'410.1
2019-Feb-13 12:30N 53°57' E 008°38'4 6.9
2019-Feb-13 12:00N 54°00' E 008°36'330.0 240 / 221032.0 6.4 3.8
2019-Feb-13 11:53N 53°58' E 008°31'5 5.3
2019-Feb-13 11:00N 54°00' E 008°24'1212.2 240 / 221032.0 6.2 4.2
2019-Feb-13 10:00N 54°06' E 008°06'4 3.5 240 / 211031.2 5.9 4.6
2019-Feb-13 09:00N 54°06' E 008°00'4 3.5 240 / 241030.6 5.7 4.4
2019-Feb-13 08:00N 54°06' E 007°54'6 6.0 230 / 201030.1 5.5 5.0
2019-Feb-13 07:00N 54°12' E 007°54'0 0.0 230 / 171029.9 5.7 5.0
2019-Feb-13 06:00N 54°12' E 007°54'0 0.0 250 / 131030.0 6.0 5.7
2019-Feb-13 05:00N 54°12' E 007°54'0 0.0 250 / 171029.8 5.9 5.6
2019-Feb-13 04:00N 54°12' E 007°54'0 0.0 250 / 141029.3 5.9 5.6
2019-Feb-13 03:00N 54°12' E 007°54'0 0.0 240 / 161029.1 5.7 5.6
2019-Feb-13 02:00N 54°12' E 007°54'0 0.0 250 / 171029.0 5.9 5.6
2019-Feb-13 01:00N 54°12' E 007°54'   240 / 191028.9 5.5 5.7
Track history (hours):
 
Tides and Currents Weather Stations Pressure Air Temp Water Temp Dewpoint Dewpoint Depression Visibility Wind Speed Wind Dir Waves Ship Positions

Oceanographic research ship Alkor (Germany)

Ship's website: http://www.briese.de/

Detailed information on ship capabilities available from University of Delaware's Ocean Information Center.

Last reported at 2019-Feb-23 01:00 UTC. Time now 2019-Feb-23 01:39 UTC.
Position N 54°18' E 010°12'.

Length 55 m; draft 4.2 m.

Type: Ship. MMSI: 211216512.

Wind from 180 at 6 knots

Barometer 1043.2 mb
Air temperature 1.2 ° C
Water temperature 5.8 ° C

Date/timePositionNaut miles runAvg speedWind from/ knotsBaromVisibWave heightAir tempDewpointWater temp
2019-Feb-23 01:00N 54°18' E 010°12'0 0.0 180 / 61043.2 1.2 5.8
2019-Feb-23 00:00N 54°18' E 010°12'0 0.0 170 / 51043.2 1.4 5.9
2019-Feb-22 23:00N 54°18' E 010°12'0 0.0 140 / 51043.9 0.9 5.9
2019-Feb-22 22:00N 54°18' E 010°12'0 0.0 140 / 21044.2 1.4 6.1
2019-Feb-22 21:00N 54°18' E 010°12'0 0.0 110 / 41043.4 1.7 6.2
2019-Feb-22 20:00N 54°18' E 010°12'0 0.0 120 / 41043.0 2.2 6.1
2019-Feb-22 19:00N 54°18' E 010°12'0 0.0 110 / 61042.7 2.4 6.1
2019-Feb-22 18:00N 54°18' E 010°12'0 0.0 090 / 81043.0 3.0 6.0
2019-Feb-22 17:00N 54°18' E 010°12'0 0.0 110 / 61042.4 4.0 5.9
2019-Feb-22 16:00N 54°18' E 010°12'0 0.0 120 / 71041.9 4.9 5.7
2019-Feb-22 15:00N 54°18' E 010°12'0 0.0 120 / 71041.6 5.7 5.8
2019-Feb-22 14:00N 54°18' E 010°12'0 0.0 120 / 91041.3 4.9 6.0
2019-Feb-22 13:00N 54°18' E 010°12'0 0.0 090 / 91041.2 4.7 6.1
2019-Feb-22 12:00N 54°18' E 010°12'0 0.0 110 / 101040.6 4.2 6.1
2019-Feb-22 11:00N 54°18' E 010°12'0 0.0 100 / 111040.6 3.2 6.0
2019-Feb-22 10:00N 54°18' E 010°12'0 0.0 100 / 131039.7 2.9 5.9
2019-Feb-22 09:00N 54°18' E 010°12'0 0.0 110 / 151039.1 2.9 6.2
2019-Feb-22 08:00N 54°18' E 010°12'0 0.0 080 / 131038.2 3.2 6.4
2019-Feb-22 07:00N 54°18' E 010°12'0 0.0 080 / 141036.9 3.2 6.3
2019-Feb-22 06:00N 54°18' E 010°12'0 0.0 080 / 131035.3 3.4 6.1
2019-Feb-22 05:00N 54°18' E 010°12'0 0.0 090 / 131034.2 3.5 5.9
2019-Feb-22 04:00N 54°18' E 010°12'0 0.0 080 / 141033.0 3.7 5.8
2019-Feb-22 03:00N 54°18' E 010°12'0 0.0 030 / 101031.6 4.9 6.4
2019-Feb-22 02:00N 54°18' E 010°12'0 0.0 040 / 121030.8 5.2 6.1
2019-Feb-22 01:00N 54°18' E 010°12'0 0.0 320 / 51029.6 7.2 6.0
2019-Feb-22 00:00N 54°18' E 010°12'0 0.0 320 / 41028.3 7.2 6.1
2019-Feb-21 23:00N 54°18' E 010°12'0 0.0 310 / 41027.6 7.2 5.9
2019-Feb-21 22:00N 54°18' E 010°12'0 0.0 290 / 31026.7 7.4 5.7
2019-Feb-21 21:00N 54°18' E 010°12'0 0.0 300 / 31025.9 7.2 5.7
2019-Feb-21 20:00N 54°18' E 010°12'0 0.0 290 / 31025.1 7.2 5.5
2019-Feb-21 19:00N 54°18' E 010°12'0 0.0 270 / 41024.2 7.4 5.5
2019-Feb-21 18:00N 54°18' E 010°12'0 0.0 250 / 41023.3 7.7 5.4
2019-Feb-21 17:00N 54°18' E 010°12'0 0.0 260 / 41022.8 7.7 5.4
2019-Feb-21 16:00N 54°18' E 010°12'0 0.0 250 / 51022.2 7.9 5.5
2019-Feb-21 15:00N 54°18' E 010°12'0 0.0 250 / 41022.3 7.9 5.5
2019-Feb-21 14:00N 54°18' E 010°12'0 0.0 240 / 81021.6 8.2 5.5
2019-Feb-21 13:00N 54°18' E 010°12'0 0.0 250 / 61021.7 8.0 5.5
2019-Feb-21 12:00N 54°18' E 010°12'0 0.0 250 / 71021.5 8.4 5.5
2019-Feb-21 11:00N 54°18' E 010°12'0 0.0 240 / 81021.3 8.2 5.4
2019-Feb-21 10:00N 54°18' E 010°12'0 0.0 240 / 71020.8 8.2 5.3
2019-Feb-21 09:00N 54°18' E 010°12'0 0.0 230 / 81020.7 7.7 5.2
2019-Feb-21 08:00N 54°18' E 010°12'0 0.0 230 / 81021.1 7.7 5.4
2019-Feb-21 07:00N 54°18' E 010°12'0 0.0 230 / 81020.4 7.7 5.5
2019-Feb-21 06:00N 54°18' E 010°12'0 0.0 230 / 71020.1 7.4 5.4
2019-Feb-21 05:00N 54°18' E 010°12'0 0.0 230 / 61020.3 7.7 5.4
2019-Feb-21 03:00N 54°18' E 010°12'0 0.0 240 / 71020.4 8.0 5.2
2019-Feb-21 02:00N 54°18' E 010°12'0 0.0 240 / 61020.4 8.4 5.2
2019-Feb-21 01:00N 54°18' E 010°12'0 0.0 240 / 71020.5 8.4 5.2
2019-Feb-21 00:00N 54°18' E 010°12'0 0.0 240 / 71020.2 8.4 5.4
2019-Feb-20 23:00N 54°18' E 010°12'0 0.0 230 / 81020.2 8.4 5.5
2019-Feb-20 22:00N 54°18' E 010°12'0 0.0 230 / 71020.4 8.4 5.5
2019-Feb-20 21:00N 54°18' E 010°12'0 0.0 220 / 101020.4 8.4 5.5
2019-Feb-20 20:00N 54°18' E 010°12'0 0.0 220 / 91020.4 8.2 5.6
2019-Feb-20 19:00N 54°18' E 010°12'0 0.0 220 / 101020.5 7.9 5.5
2019-Feb-20 18:00N 54°18' E 010°12'0 0.0 220 / 71020.5 7.7 5.5
2019-Feb-20 17:00N 54°18' E 010°12'0 0.0 220 / 101020.2 7.9 5.6
2019-Feb-20 16:00N 54°18' E 010°12'0 0.0 230 / 81020.1 8.2 5.6
2019-Feb-20 15:00N 54°18' E 010°12'0 0.0 230 / 71020.0 8.2 5.7
2019-Feb-20 14:00N 54°18' E 010°12'0 0.0 230 / 81020.0 7.9 5.7
2019-Feb-20 13:00N 54°18' E 010°12'0 0.0 240 / 71020.1 7.7 5.7
2019-Feb-20 12:00N 54°18' E 010°12'323.1 230 / 71019.8 7.9 5.7
2019-Feb-20 11:53N 54°20' E 010°09'0 0.0
2019-Feb-20 11:23N 54°20' E 010°09'3 6.4
2019-Feb-20 11:00N 54°18' E 010°12'343.0 240 / 71019.6 7.7 5.4
2019-Feb-20 10:56N 54°20' E 010°09'0 0.0
2019-Feb-20 10:26N 54°20' E 010°09'3 5.7
2019-Feb-20 10:00N 54°18' E 010°12'343.2 230 / 71019.0 7.9 5.5
2019-Feb-20 09:56N 54°20' E 010°09'0 0.0
2019-Feb-20 09:26N 54°20' E 010°09'3 5.7
2019-Feb-20 09:00N 54°18' E 010°12'343.8 230 / 71018.5 7.2 5.7
2019-Feb-20 08:56N 54°20' E 010°09'0 0.0
2019-Feb-20 08:26N 54°20' E 010°09'3 5.7
2019-Feb-20 08:00N 54°18' E 010°12'3291.6 220 / 61017.9 6.2 5.6
2019-Feb-20 07:59N 54°20' E 010°09'0 0.0
2019-Feb-20 07:29N 54°20' E 010°09'3 5.1
2019-Feb-20 07:00N 54°18' E 010°12'343.6 230 / 51017.4 6.0 5.6
2019-Feb-20 06:56N 54°20' E 010°09'0 0.0
2019-Feb-20 06:29N 54°20' E 010°09'3 5.1
2019-Feb-20 06:00N 54°18' E 010°12'3301.3 230 / 61016.7 6.2 5.6
2019-Feb-20 05:59N 54°20' E 010°09'0 0.0
2019-Feb-20 05:29N 54°20' E 010°09'3 5.1
2019-Feb-20 05:00N 54°18' E 010°12'3300.8 230 / 51016.6 6.4 5.6
2019-Feb-20 04:59N 54°20' E 010°09'0 0.0
2019-Feb-20 04:29N 54°20' E 010°09'3 5.1
2019-Feb-20 04:00N 54°18' E 010°12'3322.9 230 / 61016.2 6.2 5.5
2019-Feb-20 03:59N 54°20' E 010°09'3 2.5
2019-Feb-20 03:00N 54°18' E 010°12'3282.0 230 / 71015.9 6.5 5.4
2019-Feb-20 02:59N 54°20' E 010°09'0 0.0
2019-Feb-20 02:29N 54°20' E 010°09'3 5.1
2019-Feb-20 02:00N 54°18' E 010°12'3273.5 240 / 61015.9 6.5 5.4
2019-Feb-20 01:59N 54°20' E 010°09'0 0.0
2019-Feb-20 01:29N 54°20' E 010°09'3 5.1
2019-Feb-20 01:00N 54°18' E 010°12'315.8 240 / 51015.9 6.5 5.6
2019-Feb-20 00:50N 54°20' E 010°09'0 0.0
2019-Feb-20 00:20N 54°20' E 010°09'3 7.4
2019-Feb-20 00:00N 54°18' E 010°12'315.7 250 / 51015.3 6.7 5.7
2019-Feb-19 23:50N 54°20' E 010°09'0 0.0
2019-Feb-19 23:20N 54°20' E 010°09'3 7.4
2019-Feb-19 23:00N 54°18' E 010°12'323.0 260 / 61015.1 6.7 5.6
2019-Feb-19 22:53N 54°20' E 010°09'0 0.0
2019-Feb-19 22:23N 54°20' E 010°09'3 6.4
2019-Feb-19 22:00N 54°18' E 010°12'323.0 250 / 51014.9 6.7 5.6
2019-Feb-19 21:53N 54°20' E 010°09'0 0.0
2019-Feb-19 21:23N 54°20' E 010°09'3 6.4
2019-Feb-19 21:00N 54°18' E 010°12'322.8 240 / 61014.7 6.7 5.6
2019-Feb-19 20:53N 54°20' E 010°09'0 0.0
2019-Feb-19 20:23N 54°20' E 010°09'3 6.4
2019-Feb-19 20:00N 54°18' E 010°12'342.4 250 / 51014.5 6.5 5.6
2019-Feb-19 19:56N 54°20' E 010°09'0 0.0
2019-Feb-19 19:26N 54°20' E 010°09'3 5.7
2019-Feb-19 19:00N 54°18' E 010°12'322.7 250 / 41014.0 6.5 5.5
2019-Feb-19 18:53N 54°20' E 010°09'0 0.0
2019-Feb-19 18:23N 54°20' E 010°09'3 6.4
2019-Feb-19 18:00N 54°18' E 010°12'341.9 240 / 61013.6 6.4 5.6
2019-Feb-19 17:56N 54°20' E 010°09'0 0.0
2019-Feb-19 17:26N 54°20' E 010°09'3 5.7
2019-Feb-19 17:00N 54°18' E 010°12'342.0 240 / 71012.9 7.2 5.6
2019-Feb-19 16:56N 54°20' E 010°09'0 0.0
2019-Feb-19 16:29N 54°20' E 010°09'3 5.1
2019-Feb-19 16:00N 54°18' E 010°12'3300.8 250 / 81012.4 7.4 5.5
2019-Feb-19 15:59N 54°20' E 010°09'0 0.0
2019-Feb-19 15:29N 54°20' E 010°09'3 5.1
2019-Feb-19 15:00N 54°18' E 010°12'3258.3 240 / 91011.9 7.9 5.4
2019-Feb-19 14:59N 54°20' E 010°09'0 0.0
2019-Feb-19 14:29N 54°20' E 010°09'3 5.1
2019-Feb-19 14:00N 54°18' E 010°12'3257.8 240 / 101011.5 7.7 5.3
2019-Feb-19 13:59N 54°20' E 010°09'0 0.0
2019-Feb-19 13:29N 54°20' E 010°09'3 5.1
2019-Feb-19 13:00N 54°18' E 010°12'3243.9 230 / 91011.4 7.2 5.3
2019-Feb-19 12:59N 54°20' E 010°09'0 0.0
2019-Feb-19 12:29N 54°20' E 010°09'3 5.1
2019-Feb-19 12:00N 54°18' E 010°12'3237.5 230 / 101011.6 6.5 5.2
2019-Feb-19 11:59N 54°20' E 010°09'0 0.0
2019-Feb-19 11:29N 54°20' E 010°09'3 5.1
2019-Feb-19 11:00N 54°18' E 010°12'3257.8 240 / 91011.6 6.9 5.0
2019-Feb-19 10:59N 54°20' E 010°09'0 0.0
2019-Feb-19 10:29N 54°20' E 010°09'3 5.1
2019-Feb-19 10:00N 54°18' E 010°12'3244.1 230 / 91011.4 7.4 4.6
2019-Feb-19 09:59N 54°20' E 010°09'1 0.9
2019-Feb-19 09:23N 54°19' E 010°09'2 5.1
2019-Feb-19 09:00N 54°18' E 010°06'218.5 240 / 131011.4 7.0 5.9
2019-Feb-19 08:53N 54°19' E 010°09'0 0.0
2019-Feb-19 08:23N 54°19' E 010°09'2 5.1
2019-Feb-19 08:00N 54°18' E 010°06'218.3 240 / 141011.4 6.9 6.0
2019-Feb-19 07:53N 54°19' E 010°09'0 0.0
2019-Feb-19 07:23N 54°19' E 010°09'2 5.1
2019-Feb-19 07:00N 54°18' E 010°06'234.4 240 / 91011.1 6.9 6.2
2019-Feb-19 06:56N 54°19' E 010°09'0 0.0
2019-Feb-19 06:26N 54°19' E 010°09'2 4.5
2019-Feb-19 06:00N 54°18' E 010°06'234.4 240 / 101010.8 6.5 6.1
2019-Feb-19 05:56N 54°19' E 010°09'0 0.0
2019-Feb-19 05:26N 54°19' E 010°09'2 4.5
2019-Feb-19 05:00N 54°18' E 010°06'234.1 230 / 81010.9 6.5 6.1
2019-Feb-19 04:56N 54°19' E 010°09'0 0.0
2019-Feb-19 04:29N 54°19' E 010°09'2 4.1
2019-Feb-19 04:00N 54°18' E 010°06'2239.6 250 / 91010.8 7.2 6.0
2019-Feb-19 03:59N 54°19' E 010°09'0 0.0
2019-Feb-19 03:29N 54°19' E 010°09'2 4.1
2019-Feb-19 03:00N 54°18' E 010°06'2239.6 220 / 71010.5 6.9 6.2
2019-Feb-19 02:59N 54°19' E 010°09'0 0.0
2019-Feb-19 02:29N 54°19' E 010°09'2 4.1
2019-Feb-19 02:00N 54°18' E 010°06'2231.9 210 / 61010.8 6.4 6.1
2019-Feb-19 01:59N 54°19' E 010°09'0 0.0
2019-Feb-19 01:29N 54°19' E 010°09'2 4.1
2019-Feb-19 01:00N 54°18' E 010°06'2231.9 210 / 61011.6 6.7 6.0
2019-Feb-19 00:59N 54°19' E 010°09'0 0.0
2019-Feb-19 00:29N 54°19' E 010°09'2 4.1
2019-Feb-19 00:00N 54°18' E 010°06'2239.6 220 / 31012.0 6.9 6.1
2019-Feb-18 23:59N 54°19' E 010°09'0 0.0
2019-Feb-18 23:29N 54°19' E 010°09'2 4.1
2019-Feb-18 23:00N 54°18' E 010°06'2239.6 190 / 41012.3 7.0 6.0
2019-Feb-18 22:59N 54°19' E 010°09'0 0.0
2019-Feb-18 22:29N 54°19' E 010°09'2 4.1
2019-Feb-18 22:00N 54°18' E 010°06'2248.2 220 / 21012.8 7.5 6.0
2019-Feb-18 21:59N 54°19' E 010°09'0 0.0
2019-Feb-18 21:29N 54°19' E 010°09'2 4.1
2019-Feb-18 21:00N 54°18' E 010°06'2211.4 190 / 21013.2 8.2 5.9
2019-Feb-18 20:59N 54°19' E 010°09'0 0.0
2019-Feb-18 20:29N 54°19' E 010°09'2 4.1
2019-Feb-18 20:00N 54°18' E 010°06'212.6 210 / 31013.5 8.9 5.9
2019-Feb-18 19:50N 54°19' E 010°09'0 0.0
2019-Feb-18 19:20N 54°19' E 010°09'2 5.9
2019-Feb-18 19:00N 54°18' E 010°06'212.5 200 / 41013.7 9.7 5.9
2019-Feb-18 18:50N 54°19' E 010°09'0 0.0
2019-Feb-18 18:23N 54°19' E 010°09'2 5.1
2019-Feb-18 18:00N 54°18' E 010°06'218.2 200 / 41014.2 10.7 5.7
2019-Feb-18 17:53N 54°19' E 010°09'0 0.0
2019-Feb-18 17:23N 54°19' E 010°09'2 5.1
2019-Feb-18 17:00N 54°18' E 010°06'218.2 210 / 51014.6 12.2 5.7
2019-Feb-18 16:53N 54°19' E 010°09'0 0.0
2019-Feb-18 16:23N 54°19' E 010°09'2 5.1
2019-Feb-18 16:00N 54°18' E 010°06'233.5 210 / 71014.7 13.4 5.1
2019-Feb-18 15:56N 54°19' E 010°09'0 0.0
2019-Feb-18 15:27N 54°19' E 010°09'1 1.2
2019-Feb-18 15:00N 54°20' E 010°09'3220.1
2019-Feb-18 15:00N 54°18' E 010°12'2 5.1 200 / 91015.3 13.9 5.0
2019-Feb-18 14:30N 54°20' E 010°09'2 4.2
2019-Feb-18 14:00N 54°22' E 010°08'3174.8
2019-Feb-18 14:00N 54°24' E 010°06'2 3.9 220 / 81015.7 14.0 4.6
2019-Feb-18 13:30N 54°22' E 010°05'4 8.0
2019-Feb-18 13:00N 54°21' E 009°59'3448.3
2019-Feb-18 13:00N 54°18' E 010°00'612.1 210 / 61016.3 12.9 4.5
2019-Feb-18 12:30N 54°22' E 009°52'4 8.2
2019-Feb-18 12:00N 54°21' E 009°45'3269.6
2019-Feb-18 12:00N 54°18' E 009°48'4 8.8 220 / 81016.9 12.0 4.3
2019-Feb-18 11:31N 54°18' E 009°41'2 4.7
2019-Feb-18 11:01N 54°16' E 009°38'2129.8
2019-Feb-18 11:00N 54°18' E 009°36'2 4.6 200 / 91017.5 10.2 4.7
2019-Feb-18 10:31N 54°16' E 009°38'2 4.4
2019-Feb-18 10:01N 54°14' E 009°36'2114.0
2019-Feb-18 10:00N 54°12' E 009°36'3 6.6 220 / 51018.3 8.9 4.5
2019-Feb-18 09:31N 54°11' E 009°31'5 9.0
2019-Feb-18 09:01N 54°10' E 009°24'2146.6
2019-Feb-18 09:00N 54°12' E 009°24'712.6 220 / 41018.3 7.0 4.1
2019-Feb-18 08:25N 54°05' E 009°19'3 7.4
2019-Feb-18 08:01N 54°02' E 009°18'2137.2
2019-Feb-18 08:00N 54°00' E 009°18'1 1.8 170 / 31018.9 3.4 4.1
2019-Feb-18 07:30N 53°59' E 009°17'611.9
2019-Feb-18 07:00N 53°54' E 009°12'210.0 210 / 51018.7 4.4 4.0
2019-Feb-18 06:49N 53°56' E 009°12'3 5.3
2019-Feb-18 06:16N 53°54' E 009°09'2 6.4
2019-Feb-18 06:00N 53°54' E 009°12'248.5 180 / 61018.3 4.2 4.5
2019-Feb-18 05:57N 53°54' E 009°09'0 0.0
2019-Feb-18 05:30N 53°54' E 009°09'2 3.4
2019-Feb-18 05:00N 53°54' E 009°12'258.0 190 / 41018.4 5.0 4.5
2019-Feb-18 04:58N 53°54' E 009°09'0 0.0
2019-Feb-18 04:29N 53°54' E 009°09'2 3.5
2019-Feb-18 04:00N 53°54' E 009°12'2781.6 210 / 101018.4 6.2 4.3
2019-Feb-18 03:59N 53°54' E 009°09'0 0.0
2019-Feb-18 03:27N 53°54' E 009°09'0 0.0
2019-Feb-18 03:00N 53°54' E 009°09'2208.9
2019-Feb-18 03:00N 53°54' E 009°12'2 3.5 210 / 71018.6 5.4 4.6
2019-Feb-18 02:30N 53°54' E 009°09'0 0.0
2019-Feb-18 02:00N 53°54' E 009°09'2195.4
2019-Feb-18 02:00N 53°54' E 009°12'2 3.6 180 / 51018.8 5.2 4.4
2019-Feb-18 01:31N 53°54' E 009°09'2 3.4
2019-Feb-18 01:00N 53°54' E 009°12'2127.8 170 / 61018.9 5.2 4.8
2019-Feb-18 00:59N 53°54' E 009°09'0 0.0
2019-Feb-18 00:11N 53°54' E 009°09'2 9.3
2019-Feb-18 00:00N 53°54' E 009°12'2209.0 150 / 71018.9 5.7 4.6
2019-Feb-17 23:59N 53°54' E 009°09'2 1.8
2019-Feb-17 23:00N 53°54' E 009°12'2 6.6 140 / 71019.0 5.7 4.8
2019-Feb-17 22:44N 53°54' E 009°09'0 0.0
2019-Feb-17 22:21N 53°54' E 009°09'2 4.8
2019-Feb-17 22:00N 53°54' E 009°12'237.2 150 / 61019.2 6.4 4.8
2019-Feb-17 21:57N 53°54' E 009°09'0 0.0
2019-Feb-17 21:30N 53°54' E 009°09'2 3.4
2019-Feb-17 21:00N 53°54' E 009°12'2 5.4 140 / 51019.6 6.9 4.9
2019-Feb-17 20:40N 53°54' E 009°09'0 0.0
2019-Feb-17 20:30N 53°54' E 009°09'2 3.4
2019-Feb-17 20:00N 53°54' E 009°12'0 0.0 140 / 81019.2 8.0 5.0
2019-Feb-17 19:00N 53°54' E 009°12'0 0.0 140 / 61019.6 7.9 4.9
2019-Feb-17 18:00N 53°54' E 009°12'258.0 150 / 51019.7 8.4 5.0
2019-Feb-17 17:58N 53°54' E 009°09'0 0.0
2019-Feb-17 17:13N 53°54' E 009°09'2 7.5
2019-Feb-17 17:00N 53°54' E 009°12'212.3 140 / 81019.7 10.5 4.7
2019-Feb-17 16:51N 53°54' E 009°09'0 0.0
2019-Feb-17 16:30N 53°54' E 009°09'0 0.0
2019-Feb-17 16:00N 53°54' E 009°09'2149.2
2019-Feb-17 16:00N 53°54' E 009°12'2 2.5 120 / 51019.7 11.7 4.2
2019-Feb-17 15:18N 53°54' E 009°09'2 5.7
2019-Feb-17 15:00N 53°54' E 009°12'217.9 120 / 51020.2 13.7 4.2
2019-Feb-17 14:54N 53°54' E 009°09'0 0.6
2019-Feb-17 14:12N 53°53' E 009°09'2 8.3
2019-Feb-17 14:00N 53°54' E 009°06'1435.6 130 / 91020.5 12.2 3.9
2019-Feb-17 13:59N 53°53' E 009°06'5 9.2
2019-Feb-17 13:27N 53°51' E 008°59'4 8.9
2019-Feb-17 13:00N 53°48' E 008°54'3185.1 150 / 101020.9 12.7 4.3
2019-Feb-17 12:59N 53°50' E 008°51'5 9.8
2019-Feb-17 12:30N 53°52' E 008°43'510.3
2019-Feb-17 12:00N 53°56' E 008°38'3221.5
2019-Feb-17 12:00N 53°54' E 008°36'9 9.3 130 / 101021.4 9.4 4.5
2019-Feb-17 11:00N 54°00' E 008°24'249.9 160 / 151021.8 7.7 4.6
2019-Feb-17 10:57N 53°59' E 008°20'611.5
2019-Feb-17 10:26N 53°58' E 008°10'511.1
2019-Feb-17 10:01N 53°55' E 008°04'2116.5
2019-Feb-17 10:00N 53°54' E 008°06'5 9.5 160 / 131022.2 7.2 4.5
2019-Feb-17 09:30N 53°49' E 008°07'612.3
2019-Feb-17 09:00N 53°45' E 008°14'3190.8
2019-Feb-17 09:00N 53°42' E 008°12'611.7 160 / 131022.5 5.4 4.3
2019-Feb-17 08:30N 53°41' E 008°21'510.7
2019-Feb-17 08:00N 53°37' E 008°28'2294.8
2019-Feb-17 08:00N 53°36' E 008°30'3 6.8 160 / 101022.9 6.4 4.4
2019-Feb-17 07:30N 53°33' E 008°33'2 3.3
2019-Feb-17 07:00N 53°32' E 008°35'2151.3
2019-Feb-17 07:00N 53°30' E 008°36'2 4.4 170 / 51022.8 5.5 5.3
2019-Feb-17 06:30N 53°32' E 008°35'0 0.0
2019-Feb-17 06:00N 53°32' E 008°35'2159.2
2019-Feb-17 06:00N 53°30' E 008°36'2 4.0 160 / 41022.8 6.0 6.4
2019-Feb-17 05:27N 53°32' E 008°35'0 0.0
2019-Feb-17 05:00N 53°32' E 008°35'2169.9
2019-Feb-17 05:00N 53°30' E 008°36'2 4.4 180 / 61023.0 6.5 6.4
2019-Feb-17 04:30N 53°32' E 008°35'0 0.0
2019-Feb-17 04:00N 53°32' E 008°35'2156.0
2019-Feb-17 04:00N 53°30' E 008°36'2 4.4 170 / 41023.5 6.9 6.5
2019-Feb-17 03:30N 53°32' E 008°35'0 0.0
2019-Feb-17 03:00N 53°32' E 008°35'2156.0
2019-Feb-17 03:00N 53°30' E 008°36'2 4.4 190 / 71023.7 7.0 6.5
2019-Feb-17 02:30N 53°32' E 008°35'0 0.0
2019-Feb-17 02:00N 53°32' E 008°35'2159.2
2019-Feb-17 02:00N 53°30' E 008°36'2 4.4 180 / 61023.8 7.7 6.5
2019-Feb-17 01:30N 53°32' E 008°35'0 0.0
2019-Feb-17 01:00N 53°32' E 008°35'2156.0
2019-Feb-17 01:00N 53°30' E 008°36'2 4.4 190 / 61024.0 8.4 6.1
2019-Feb-17 00:30N 53°32' E 008°35'0 0.0
2019-Feb-17 00:00N 53°32' E 008°35'2159.3
2019-Feb-17 00:00N 53°30' E 008°36'2 4.4 210 / 51024.0 9.2 5.9
2019-Feb-16 23:30N 53°32' E 008°35'0 0.0
2019-Feb-16 23:00N 53°32' E 008°35'2159.3
2019-Feb-16 23:00N 53°30' E 008°36'2 4.4 1024.1 8.7 5.9
2019-Feb-16 22:30N 53°32' E 008°35'0 0.0
2019-Feb-16 22:00N 53°32' E 008°35'2146.9
2019-Feb-16 22:00N 53°30' E 008°36'2 4.4 210 / 51024.0 8.9 5.9
2019-Feb-16 21:30N 53°32' E 008°35'0 0.0
2019-Feb-16 21:00N 53°32' E 008°35'2150.0
2019-Feb-16 21:00N 53°30' E 008°36'2 4.4 210 / 31024.2 9.2 6.0
2019-Feb-16 20:30N 53°32' E 008°35'0 0.0
2019-Feb-16 20:00N 53°32' E 008°35'2152.9
2019-Feb-16 20:00N 53°30' E 008°36'2 4.4 210 / 71023.7 9.2 5.8
2019-Feb-16 19:30N 53°32' E 008°35'0 0.0
2019-Feb-16 19:00N 53°32' E 008°35'2169.9
2019-Feb-16 19:00N 53°30' E 008°36'2 4.4 210 / 61023.8 9.7 5.6
2019-Feb-16 18:30N 53°32' E 008°35'0 0.0
2019-Feb-16 18:00N 53°32' E 008°35'2169.9
2019-Feb-16 18:00N 53°30' E 008°36'2 4.3 240 / 21023.9 9.7 5.4
2019-Feb-16 17:30N 53°32' E 008°35'0 0.0
2019-Feb-16 17:00N 53°32' E 008°35'2162.6
2019-Feb-16 17:00N 53°30' E 008°36'2 4.4 260 / 21023.6 10.5 4.9
2019-Feb-16 16:30N 53°32' E 008°35'0 0.0
2019-Feb-16 16:00N 53°32' E 008°35'2165.7
2019-Feb-16 16:00N 53°30' E 008°36'2 4.4 260 / 21023.3 11.9 4.6
2019-Feb-16 15:30N 53°32' E 008°35'0 0.0
2019-Feb-16 15:00N 53°32' E 008°35'2159.3
2019-Feb-16 15:00N 53°30' E 008°36'2 4.3 210 / 51023.0 12.9 4.8
2019-Feb-16 14:30N 53°32' E 008°35'0 0.3
2019-Feb-16 14:00N 53°32' E 008°35'2144.9
2019-Feb-16 14:00N 53°30' E 008°36'611.7 210 / 121023.5 12.2 5.0
2019-Feb-16 13:30N 53°35' E 008°31'5 9.9
2019-Feb-16 13:00N 53°38' E 008°25'3211.2
2019-Feb-16 13:00N 53°36' E 008°24'612.4 210 / 171023.5 11.0 4.3
2019-Feb-16 12:30N 53°42' E 008°20'2 4.0
2019-Feb-16 12:00N 53°43' E 008°17'159.5
2019-Feb-16 12:00N 53°42' E 008°18'511.1 200 / 161023.3 7.7 4.1
2019-Feb-16 11:30N 53°45' E 008°11'2 4.1
2019-Feb-16 11:00N 53°47' E 008°08'2195.8
2019-Feb-16 11:00N 53°48' E 008°06'3 6.2 210 / 141023.5 7.4 4.2
2019-Feb-16 10:30N 53°51' E 008°07'2 4.9
2019-Feb-16 10:00N 53°53' E 008°06'152.9
2019-Feb-16 10:00N 53°54' E 008°06'3 6.2 220 / 141023.2 5.9 4.3
2019-Feb-16 09:30N 53°56' E 008°02'5 9.0
2019-Feb-16 09:00N 53°60' E 007°59'049.9
2019-Feb-16 09:00N 54°00' E 008°00'3 4.4 220 / 171022.9 5.9 4.9
2019-Feb-16 08:19N 54°03' E 007°60'0 0.6
2019-Feb-16 08:00N 54°03' E 007°60'32069.6
2019-Feb-16 08:00N 54°06' E 008°00'2 2.5 200 / 211022.3 5.7 4.8
2019-Feb-16 07:03N 54°06' E 007°56'123.6
2019-Feb-16 07:00N 54°06' E 007°54'5 9.2 210 / 181022.2 5.5 4.7
2019-Feb-16 06:30N 54°11' E 007°54'1 2.9
2019-Feb-16 06:00N 54°12' E 007°54'0 0.0 220 / 151022.1 5.5 6.2
2019-Feb-16 05:00N 54°12' E 007°54'0 0.0 220 / 151022.3 6.0 6.2
2019-Feb-16 04:00N 54°12' E 007°54'0 0.0 210 / 121022.6 5.9 6.3
2019-Feb-16 03:00N 54°12' E 007°54'0 0.0 200 / 131023.1 6.2 6.3
2019-Feb-16 02:00N 54°12' E 007°54'0 0.0 190 / 131024.0 6.2 6.3
2019-Feb-16 01:00N 54°12' E 007°54'0 0.0 190 / 151024.4 6.9 6.3
2019-Feb-16 00:00N 54°12' E 007°54'0 0.0 190 / 131025.0 7.2 6.3
2019-Feb-15 23:00N 54°12' E 007°54'0 0.0 190 / 131025.3 7.2 6.3
2019-Feb-15 22:00N 54°12' E 007°54'0 0.0 180 / 131025.6 7.0 6.3
2019-Feb-15 21:00N 54°12' E 007°54'0 0.0 190 / 121026.3 7.2 6.3
2019-Feb-15 20:00N 54°12' E 007°54'0 0.0 190 / 111026.8 7.5 6.3
2019-Feb-15 19:00N 54°12' E 007°54'0 0.0 190 / 101027.4 8.0 6.3
2019-Feb-15 18:00N 54°12' E 007°54'0 0.0 180 / 131027.8 8.4 6.4
2019-Feb-15 17:00N 54°12' E 007°54'0 0.0 170 / 111028.1 7.9 6.3
2019-Feb-15 16:00N 54°12' E 007°54'0 0.0 170 / 101028.3 7.5 6.2
2019-Feb-15 15:00N 54°12' E 007°54'0 0.0 180 / 101029.3 7.5 6.2
2019-Feb-15 14:00N 54°12' E 007°54'115.8 170 / 71030.0 6.7 6.1
2019-Feb-15 13:54N 54°11' E 007°54'0 0.0
2019-Feb-15 13:00N 54°11' E 007°54'1153.9
2019-Feb-15 13:00N 54°12' E 007°54'1 2.9 180 / 81030.7 6.7 5.9
2019-Feb-15 12:30N 54°11' E 007°54'1 2.8
2019-Feb-15 12:00N 54°12' E 007°54'1 7.6 180 / 101031.4 6.4 5.7
2019-Feb-15 11:48N 54°11' E 007°54'0 0.0
2019-Feb-15 11:09N 54°11' E 007°54'1 9.2
2019-Feb-15 11:00N 54°12' E 007°54'115.8 190 / 121031.8 6.0 5.1
2019-Feb-15 10:54N 54°11' E 007°54'2 5.7
2019-Feb-15 10:29N 54°08' E 007°54'2 4.4
2019-Feb-15 10:00N 54°06' E 007°54'315.0 180 / 151032.0 5.7 4.9
2019-Feb-15 09:49N 54°08' E 007°52'0 0.2
2019-Feb-15 09:28N 54°08' E 007°52'3 5.5
2019-Feb-15 09:00N 54°06' E 007°54'214.0 180 / 131032.2 5.4 4.8
2019-Feb-15 08:50N 54°08' E 007°52'1 1.6
2019-Feb-15 08:22N 54°08' E 007°54'1 2.3
2019-Feb-15 08:00N 54°08' E 007°52'2515.2
2019-Feb-15 08:00N 54°06' E 007°54'3 6.0 180 / 131032.2 5.4 4.8
2019-Feb-15 07:26N 54°09' E 007°51'2 5.5
2019-Feb-15 07:00N 54°10' E 007°54'2759.1
2019-Feb-15 07:00N 54°12' E 007°54'0 0.0 180 / 91032.1 5.2 5.1
2019-Feb-15 06:00N 54°12' E 007°54'1 1.5 190 / 81032.0 4.9 6.4
2019-Feb-15 05:01N 54°11' E 007°54'164.3
2019-Feb-15 05:00N 54°12' E 007°54'1 1.5 210 / 41032.2 4.7 6.3
2019-Feb-15 04:01N 54°11' E 007°54'167.7
2019-Feb-15 04:00N 54°12' E 007°54'118.1 200 / 81032.5 5.0 6.3
2019-Feb-15 03:55N 54°11' E 007°54'1 1.6
2019-Feb-15 03:00N 54°12' E 007°54'111.1 220 / 51032.9 4.9 6.3
2019-Feb-15 02:52N 54°11' E 007°54'0 0.0
2019-Feb-15 02:13N 54°11' E 007°54'1 6.6
2019-Feb-15 02:00N 54°12' E 007°54'1 4.4 200 / 81033.4 5.2 6.3
2019-Feb-15 01:40N 54°11' E 007°54'1 2.2
2019-Feb-15 01:00N 54°12' E 007°54'1 2.7 230 / 71033.6 5.5 6.3
2019-Feb-15 00:28N 54°11' E 007°54'1 3.1
2019-Feb-15 00:00N 54°12' E 007°54'118.2 230 / 91033.6 5.7 6.2
2019-Feb-14 23:55N 54°11' E 007°54'0 0.0
2019-Feb-14 23:19N 54°11' E 007°54'1 4.5
2019-Feb-14 23:00N 54°12' E 007°54'1 8.1 220 / 101033.6 5.7 6.2
2019-Feb-14 22:49N 54°11' E 007°54'0 0.0
2019-Feb-14 22:25N 54°11' E 007°54'1 3.4
2019-Feb-14 22:00N 54°12' E 007°54'118.2 220 / 71033.7 5.2 6.2
2019-Feb-14 21:55N 54°11' E 007°54'1 1.6
2019-Feb-14 21:00N 54°12' E 007°54'0 0.0 230 / 81033.6 5.5 6.1
2019-Feb-14 20:00N 54°12' E 007°54'0 0.0 220 / 81033.7 5.4 6.1
2019-Feb-14 19:00N 54°12' E 007°54'0 0.0 230 / 91033.7 5.7 6.1
2019-Feb-14 18:00N 54°12' E 007°54'0 0.0 240 / 101033.6 5.7 6.1
2019-Feb-14 17:00N 54°12' E 007°54'0 0.0 240 / 121033.3 5.7 6.0
2019-Feb-14 16:00N 54°12' E 007°54'0 0.0 240 / 151033.0 5.9 5.9
2019-Feb-14 15:00N 54°12' E 007°54'0 0.0 240 / 121033.6 5.9 5.8
2019-Feb-14 14:00N 54°12' E 007°54'0 0.0 240 / 131033.8 5.9 5.6
2019-Feb-14 13:00N 54°12' E 007°54'237.9 240 / 161034.0 5.7 5.0
2019-Feb-14 12:56N 54°10' E 007°54'1 3.2
2019-Feb-14 12:30N 54°09' E 007°55'4 8.0
2019-Feb-14 12:00N 54°06' E 008°00'3285.1 220 / 181034.3 5.5 4.8
2019-Feb-14 11:59N 54°08' E 007°58'4 7.0
2019-Feb-14 11:22N 54°08' E 008°05'2 5.2
2019-Feb-14 11:00N 54°06' E 008°06'4 9.8 220 / 191034.2 4.9 4.4
2019-Feb-14 10:34N 54°04' E 008°12'0 0.1
2019-Feb-14 10:25N 54°04' E 008°12'4 9.6
2019-Feb-14 10:00N 54°00' E 008°12'416.9 220 / 181034.3 4.4 4.4
2019-Feb-14 09:46N 54°01' E 008°18'411.8
2019-Feb-14 09:24N 53°60' E 008°26'1 2.5
2019-Feb-14 09:00N 54°00' E 008°24'815.7 210 / 201034.1 4.4 4.2
2019-Feb-14 08:30N 53°58' E 008°37'5 9.7
2019-Feb-14 08:00N 53°54' E 008°42'1 3.0 220 / 121034.4 4.2 3.8
2019-Feb-14 07:32N 53°53' E 008°43'1 2.6
2019-Feb-14 07:00N 53°54' E 008°42'365.7 220 / 71034.1 3.7 5.3
2019-Feb-14 06:57N 53°51' E 008°43'3 2.8
2019-Feb-14 06:00N 53°54' E 008°42'0 0.0 220 / 91033.8 3.9 5.8
2019-Feb-14 05:00N 53°54' E 008°42'0 0.0 220 / 91033.5 4.4 6.2
2019-Feb-14 04:00N 53°54' E 008°42'0 0.0 210 / 61033.7 5.0 6.0
2019-Feb-14 03:00N 53°54' E 008°42'0 0.0 220 / 81033.5 5.2 6.1
2019-Feb-14 02:00N 53°54' E 008°42'0 0.0 220 / 101033.4 5.5 6.0
2019-Feb-14 01:00N 53°54' E 008°42'0 0.0 230 / 101033.5 5.5 6.0
2019-Feb-14 00:00N 53°54' E 008°42'0 0.0 230 / 91033.8 5.9 5.8
2019-Feb-13 23:00N 53°54' E 008°42'0 0.0 230 / 121033.2 6.4 5.8
2019-Feb-13 22:00N 53°54' E 008°42'0 0.0 240 / 131033.1 6.9 5.7
2019-Feb-13 21:00N 53°54' E 008°42'0 0.0 230 / 131032.8 7.0 5.6
2019-Feb-13 20:00N 53°54' E 008°42'0 0.0 230 / 141033.0 7.2 5.6
2019-Feb-13 19:00N 53°54' E 008°42'0 0.0 240 / 141032.9 7.5 5.5
2019-Feb-13 18:00N 53°54' E 008°42'0 0.0 240 / 131032.7 7.5 5.3
2019-Feb-13 17:00N 53°54' E 008°42'0 0.0 240 / 131032.2 7.2 5.1
2019-Feb-13 16:00N 53°54' E 008°42'3 3.6 240 / 111032.0 7.7 4.7
2019-Feb-13 15:13N 53°51' E 008°43'311.8
2019-Feb-13 15:00N 53°54' E 008°42'238.3 240 / 121032.0 7.7 3.7
2019-Feb-13 14:56N 53°52' E 008°43'1 2.3
2019-Feb-13 14:29N 53°52' E 008°44'3 6.0
2019-Feb-13 14:00N 53°50' E 008°48'2169.9
2019-Feb-13 14:00N 53°48' E 008°48'4 8.7 250 / 161032.0 7.4 3.4
2019-Feb-13 13:29N 53°52' E 008°44'3 5.2
2019-Feb-13 13:00N 53°54' E 008°42'111.9 240 / 151032.0 7.2 3.5
2019-Feb-13 12:55N 53°53' E 008°42'410.1
2019-Feb-13 12:30N 53°57' E 008°38'4 6.9
2019-Feb-13 12:00N 54°00' E 008°36'330.0 240 / 221032.0 6.4 3.8
2019-Feb-13 11:53N 53°58' E 008°31'5 5.3
2019-Feb-13 11:00N 54°00' E 008°24'1212.2 240 / 221032.0 6.2 4.2
2019-Feb-13 10:00N 54°06' E 008°06'4 3.5 240 / 211031.2 5.9 4.6
2019-Feb-13 09:00N 54°06' E 008°00'4 3.5 240 / 241030.6 5.7 4.4
2019-Feb-13 08:00N 54°06' E 007°54'6 6.0 230 / 201030.1 5.5 5.0
2019-Feb-13 07:00N 54°12' E 007°54'0 0.0 230 / 171029.9 5.7 5.0
2019-Feb-13 06:00N 54°12' E 007°54'0 0.0 250 / 131030.0 6.0 5.7
2019-Feb-13 05:00N 54°12' E 007°54'0 0.0 250 / 171029.8 5.9 5.6
2019-Feb-13 04:00N 54°12' E 007°54'0 0.0 250 / 141029.3 5.9 5.6
2019-Feb-13 03:00N 54°12' E 007°54'0 0.0 240 / 161029.1 5.7 5.6
2019-Feb-13 02:00N 54°12' E 007°54'0 0.0 250 / 171029.0 5.9 5.6
2019-Feb-13 01:00N 54°12' E 007°54'   240 / 191028.9 5.5 5.7

Dump ship's entire track history